Time,TemperatureF,DewpointF,PressureIn,WindDirection,WindDirectionDegrees,WindSpeedMPH,WindSpeedGustMPH,Humidity,HourlyPrecipIn,Conditions,Clouds,dailyrainin,SoftwareType,DateUTC
2013-03-04 00:00:00,31.1,24.4,30.14,WNW,289,0.0,0.0,76,0.00,,SCT085,0.00,VWS V14.01,2013-03-04 08:00:00,
2013-03-04 00:05:00,31.0,24.3,30.14,WNW,289,0.0,0.0,76,0.00,,CLR,0.00,VWS V14.01,2013-03-04 08:05:00,
2013-03-04 00:10:00,31.0,24.3,30.14,WNW,289,0.0,0.0,76,0.00,,CLR,0.00,VWS V14.01,2013-03-04 08:10:00,
2013-03-04 00:15:00,31.3,24.6,30.14,WNW,289,0.0,0.0,76,0.00,,CLR,0.00,VWS V14.01,2013-03-04 08:15:00,
2013-03-04 00:20:00,31.4,24.7,30.15,WNW,289,0.0,0.0,76,0.00,,CLR,0.00,VWS V14.01,2013-03-04 08:20:00,
2013-03-04 00:25:00,31.6,24.9,30.15,WNW,289,0.0,0.0,76,0.00,,CLR,0.00,VWS V14.01,2013-03-04 08:25:00,
2013-03-04 00:30:00,31.3,25.2,30.15,WNW,289,0.0,0.0,78,0.00,,CLR,0.00,VWS V14.01,2013-03-04 08:30:00,
2013-03-04 00:36:00,30.8,25.1,30.16,WNW,289,0.0,0.0,79,0.00,,CLR,0.00,VWS V14.01,2013-03-04 08:36:00,
2013-03-04 00:41:00,30.4,24.7,30.16,WNW,289,0.0,0.0,79,0.00,,CLR,0.00,VWS V14.01,2013-03-04 08:41:00,
2013-03-04 00:46:00,30.3,24.6,30.16,WNW,289,0.0,0.0,79,0.00,,CLR,0.00,VWS V14.01,2013-03-04 08:46:00,
2013-03-04 00:51:00,30.0,24.6,30.16,WNW,289,0.0,0.0,80,0.00,,CLR,0.00,VWS V14.01,2013-03-04 08:51:00,
2013-03-04 00:56:00,29.8,24.4,30.16,WNW,289,0.0,0.0,80,0.00,,CLR,0.00,VWS V14.01,2013-03-04 08:56:00,
2013-03-04 01:01:00,29.7,24.3,30.16,WNW,289,0.0,0.0,80,0.00,,CLR,0.00,VWS V14.01,2013-03-04 09:01:00,
2013-03-04 01:06:00,29.5,24.1,30.17,WNW,289,0.0,0.0,80,0.00,,CLR,0.00,VWS V14.01,2013-03-04 09:06:00,
2013-03-04 01:11:00,29.4,24.0,30.17,WNW,289,0.0,0.0,80,0.00,,CLR,0.00,VWS V14.01,2013-03-04 09:11:00,
2013-03-04 01:16:00,29.4,24.3,30.17,WNW,289,0.0,0.0,81,0.00,,CLR,0.00,VWS V14.01,2013-03-04 09:16:00,
2013-03-04 01:22:00,29.4,24.6,30.17,WNW,289,0.0,0.0,82,0.00,,CLR,0.00,VWS V14.01,2013-03-04 09:22:00,
2013-03-04 01:27:00,29.4,24.6,30.17,WNW,289,0.0,0.0,82,0.00,,CLR,0.00,VWS V14.01,2013-03-04 09:27:00,
2013-03-04 01:32:00,29.4,24.6,30.17,WNW,289,0.0,0.0,82,0.00,,CLR,0.00,VWS V14.01,2013-03-04 09:32:00,
2013-03-04 01:37:00,29.5,24.7,30.17,WNW,289,0.0,0.0,82,0.00,,CLR,0.00,VWS V14.01,2013-03-04 09:37:00,
2013-03-04 01:42:00,29.5,24.7,30.17,WNW,289,0.0,0.0,82,0.00,,CLR,0.00,VWS V14.01,2013-03-04 09:42:00,
2013-03-04 01:47:00,29.5,24.7,30.17,WNW,289,0.0,0.0,82,0.00,,CLR,0.00,VWS V14.01,2013-03-04 09:47:00,
2013-03-04 01:52:00,29.5,24.7,30.17,WNW,289,0.0,0.0,82,0.00,,CLR,0.00,VWS V14.01,2013-03-04 09:52:00,
2013-03-04 01:57:00,29.4,24.6,30.17,WNW,289,0.0,0.0,82,0.00,,CLR,0.00,VWS V14.01,2013-03-04 09:57:00,
2013-03-04 02:02:00,29.2,24.4,30.18,WNW,289,0.0,0.0,82,0.00,,BKN060,0.00,VWS V14.01,2013-03-04 10:02:00,
2013-03-04 02:07:00,29.1,24.3,30.18,WNW,289,0.0,0.0,82,0.00,,BKN060,0.00,VWS V14.01,2013-03-04 10:07:00,
2013-03-04 02:12:00,28.8,24.0,30.18,WNW,289,0.0,0.0,82,0.00,,BKN060,0.00,VWS V14.01,2013-03-04 10:12:00,
2013-03-04 02:18:00,28.8,24.0,30.18,WNW,289,0.0,0.0,82,0.00,,BKN060,0.00,VWS V14.01,2013-03-04 10:18:00,
2013-03-04 02:23:00,28.8,24.3,30.18,WNW,289,0.0,0.0,83,0.00,,BKN060,0.00,VWS V14.01,2013-03-04 10:23:00,
2013-03-04 02:28:00,28.3,23.8,30.18,WNW,289,0.0,0.0,83,0.00,,BKN060,0.00,VWS V14.01,2013-03-04 10:28:00,
2013-03-04 02:33:00,28.2,23.7,30.18,WNW,289,0.0,0.0,83,0.00,,BKN060,0.00,VWS V14.01,2013-03-04 10:33:00,
2013-03-04 02:38:00,28.2,24.0,30.18,WNW,289,0.0,0.0,84,0.00,,BKN060,0.00,VWS V14.01,2013-03-04 10:38:00,
2013-03-04 02:43:00,28.0,23.8,30.18,WNW,289,0.0,0.0,84,0.00,,BKN060,0.00,VWS V14.01,2013-03-04 10:43:00,
2013-03-04 02:48:00,27.7,23.5,30.18,WNW,289,0.0,0.0,84,0.00,,BKN060,0.00,VWS V14.01,2013-03-04 10:48:00,
2013-03-04 02:53:00,27.7,23.5,30.18,WNW,289,0.0,0.0,84,0.00,,BKN060,0.00,VWS V14.01,2013-03-04 10:53:00,
2013-03-04 02:58:00,27.7,23.8,30.18,WNW,289,0.0,0.0,85,0.00,,BKN060,0.00,VWS V14.01,2013-03-04 10:58:00,
2013-03-04 03:03:00,27.9,24.0,30.19,WNW,289,0.0,0.0,85,0.00,,FEW070,0.00,VWS V14.01,2013-03-04 11:03:00,
2013-03-04 03:08:00,28.3,24.4,30.19,WNW,289,0.0,0.0,85,0.00,,FEW070,0.00,VWS V14.01,2013-03-04 11:08:00,
2013-03-04 03:13:00,28.5,24.6,30.19,WNW,289,0.0,0.0,85,0.00,,FEW070,0.00,VWS V14.01,2013-03-04 11:13:00,
2013-03-04 03:19:00,28.6,24.7,30.19,WNW,289,0.0,0.0,85,0.00,,FEW070,0.00,VWS V14.01,2013-03-04 11:19:00,
2013-03-04 03:24:00,28.6,24.7,30.19,WNW,289,0.0,0.0,85,0.00,,FEW070,0.00,VWS V14.01,2013-03-04 11:24:00,
2013-03-04 03:29:00,28.8,24.6,30.19,WNW,289,0.0,0.0,84,0.00,,FEW070,0.00,VWS V14.01,2013-03-04 11:29:00,
2013-03-04 03:34:00,28.8,24.6,30.19,WNW,289,0.0,0.0,84,0.00,,FEW070,0.00,VWS V14.01,2013-03-04 11:34:00,
2013-03-04 03:39:00,28.6,24.4,30.19,WNW,289,0.0,0.0,84,0.00,,FEW070,0.00,VWS V14.01,2013-03-04 11:39:00,
2013-03-04 03:44:00,28.6,24.4,30.19,WNW,289,0.0,0.0,84,0.00,,FEW070,0.00,VWS V14.01,2013-03-04 11:44:00,
2013-03-04 03:49:00,28.5,24.3,30.20,WNW,289,0.0,0.0,84,0.00,,FEW070,0.00,VWS V14.01,2013-03-04 11:49:00,
2013-03-04 03:54:00,28.3,24.1,30.20,WNW,289,0.0,0.0,84,0.00,,FEW070,0.00,VWS V14.01,2013-03-04 11:54:00,
2013-03-04 03:59:00,28.2,24.0,30.20,WNW,289,0.0,0.0,84,0.00,,FEW070,0.00,VWS V14.01,2013-03-04 11:59:00,
2013-03-04 04:04:00,27.9,23.7,30.20,WNW,289,0.0,0.0,84,0.00,,CLR,0.00,VWS V14.01,2013-03-04 12:04:00,
2013-03-04 04:09:00,27.7,23.8,30.20,WNW,289,0.0,0.0,85,0.00,,CLR,0.00,VWS V14.01,2013-03-04 12:09:00,
2013-03-04 04:14:00,27.4,23.2,30.20,WNW,289,0.0,0.0,84,0.00,,CLR,0.00,VWS V14.01,2013-03-04 12:14:00,
2013-03-04 04:19:00,27.0,22.8,30.20,WNW,289,0.0,0.0,84,0.00,,CLR,0.00,VWS V14.01,2013-03-04 12:19:00,
2013-03-04 04:24:00,26.7,22.8,30.20,WNW,289,0.0,0.0,85,0.00,,CLR,0.00,VWS V14.01,2013-03-04 12:24:00,
2013-03-04 04:30:00,26.6,22.7,30.20,WNW,289,0.0,0.0,85,0.00,,CLR,0.00,VWS V14.01,2013-03-04 12:30:00,
2013-03-04 04:35:00,26.4,22.8,30.20,WNW,289,0.0,0.0,86,0.00,,CLR,0.00,VWS V14.01,2013-03-04 12:35:00,
2013-03-04 04:40:00,26.4,22.8,30.20,WNW,289,0.0,0.0,86,0.00,,CLR,0.00,VWS V14.01,2013-03-04 12:40:00,
2013-03-04 04:45:00,26.3,22.7,30.20,WNW,289,0.0,0.0,86,0.00,,CLR,0.00,VWS V14.01,2013-03-04 12:45:00,
2013-03-04 04:50:00,26.1,22.5,30.21,WNW,289,0.0,0.0,86,0.00,,CLR,0.00,VWS V14.01,2013-03-04 12:50:00,
2013-03-04 04:55:00,26.0,22.4,30.21,WNW,289,0.0,0.0,86,0.00,,CLR,0.00,VWS V14.01,2013-03-04 12:55:00,
2013-03-04 05:00:00,26.1,22.8,30.21,WNW,289,0.0,0.0,87,0.00,,CLR,0.00,VWS V14.01,2013-03-04 13:00:00,
2013-03-04 05:05:00,26.1,22.8,30.21,WNW,289,0.0,0.0,87,0.00,,CLR,0.00,VWS V14.01,2013-03-04 13:05:00,
2013-03-04 05:11:00,26.1,22.8,30.21,WNW,289,0.0,0.0,87,0.00,,CLR,0.00,VWS V14.01,2013-03-04 13:11:00,
2013-03-04 05:16:00,26.1,22.8,30.21,WNW,289,0.0,0.0,87,0.00,,CLR,0.00,VWS V14.01,2013-03-04 13:16:00,
2013-03-04 05:21:00,26.1,22.8,30.21,WNW,289,0.0,0.0,87,0.00,,CLR,0.00,VWS V14.01,2013-03-04 13:21:00,
2013-03-04 05:26:00,26.3,23.2,30.21,WNW,289,0.0,0.0,88,0.00,,CLR,0.00,VWS V14.01,2013-03-04 13:26:00,
2013-03-04 05:31:00,26.4,23.3,30.21,WNW,289,0.0,0.0,88,0.00,,CLR,0.00,VWS V14.01,2013-03-04 13:31:00,
2013-03-04 05:36:00,26.4,23.3,30.22,WNW,289,0.0,0.0,88,0.00,,CLR,0.00,VWS V14.01,2013-03-04 13:36:00,
2013-03-04 05:41:00,26.4,23.3,30.22,WNW,289,0.0,0.0,88,0.00,,CLR,0.00,VWS V14.01,2013-03-04 13:41:00,
2013-03-04 05:46:00,26.6,23.5,30.22,WNW,289,0.0,0.0,88,0.00,,CLR,0.00,VWS V14.01,2013-03-04 13:46:00,
2013-03-04 05:52:00,26.7,23.9,30.22,WNW,289,0.0,0.0,89,0.00,,CLR,0.00,VWS V14.01,2013-03-04 13:52:00,
2013-03-04 05:57:00,26.7,23.9,30.22,WNW,289,0.0,0.0,89,0.00,,CLR,0.00,VWS V14.01,2013-03-04 13:57:00,
2013-03-04 06:02:00,26.7,23.6,30.22,WNW,289,0.0,0.0,88,0.00,,CLR,0.00,VWS V14.01,2013-03-04 14:02:00,
2013-03-04 06:07:00,26.6,23.5,30.22,WNW,289,0.0,0.0,88,0.00,,CLR,0.00,VWS V14.01,2013-03-04 14:07:00,
2013-03-04 06:12:00,26.4,23.3,30.22,WNW,289,0.0,0.0,88,0.00,,CLR,0.00,VWS V14.01,2013-03-04 14:12:00,
2013-03-04 06:17:00,26.3,23.2,30.22,WNW,289,0.0,0.0,88,0.00,,CLR,0.00,VWS V14.01,2013-03-04 14:17:00,
2013-03-04 06:22:00,26.3,23.2,30.22,WNW,289,0.0,0.0,88,0.00,,CLR,0.00,VWS V14.01,2013-03-04 14:22:00,
2013-03-04 06:27:00,26.3,23.5,30.22,WNW,289,0.0,0.0,89,0.00,,CLR,0.00,VWS V14.01,2013-03-04 14:27:00,
2013-03-04 06:32:00,26.3,23.5,30.23,WNW,289,0.0,0.0,89,0.00,,CLR,0.00,VWS V14.01,2013-03-04 14:32:00,
2013-03-04 06:38:00,26.3,23.5,30.23,WNW,289,0.0,0.0,89,0.00,,CLR,0.00,VWS V14.01,2013-03-04 14:38:00,
2013-03-04 06:43:00,26.4,23.6,30.23,WNW,289,0.0,0.0,89,0.00,,CLR,0.00,VWS V14.01,2013-03-04 14:43:00,
2013-03-04 06:48:00,26.4,23.6,30.23,WNW,289,0.0,0.0,89,0.00,,CLR,0.00,VWS V14.01,2013-03-04 14:48:00,
2013-03-04 06:53:00,26.6,23.8,30.23,WNW,289,0.0,0.0,89,0.00,,CLR,0.00,VWS V14.01,2013-03-04 14:53:00,
2013-03-04 06:58:00,26.8,24.0,30.23,WNW,289,0.0,0.0,89,0.00,,CLR,0.00,VWS V14.01,2013-03-04 14:58:00,
2013-03-04 07:03:00,27.1,24.6,30.23,WNW,289,0.0,0.0,90,0.00,,CLR,0.00,VWS V14.01,2013-03-04 15:03:00,
2013-03-04 07:08:00,27.6,25.1,30.23,WNW,289,0.0,0.0,90,0.00,,CLR,0.00,VWS V14.01,2013-03-04 15:08:00,
2013-03-04 07:13:00,28.2,25.6,30.23,WNW,289,0.0,0.0,90,0.00,,CLR,0.00,VWS V14.01,2013-03-04 15:13:00,
2013-03-04 07:18:00,28.8,26.2,30.23,WNW,289,0.0,0.0,90,0.00,,CLR,0.00,VWS V14.01,2013-03-04 15:18:00,
2013-03-04 07:23:00,28.8,26.2,30.23,NE,38,1.0,1.0,90,0.00,,CLR,0.00,VWS V14.01,2013-03-04 15:23:00,
2013-03-04 07:28:00,28.8,26.2,30.23,NE,41,0.0,0.0,90,0.00,,CLR,0.00,VWS V14.01,2013-03-04 15:28:00,
2013-03-04 07:33:00,31.4,28.8,30.24,ENE,58,1.0,1.0,90,0.00,,CLR,0.00,VWS V14.01,2013-03-04 15:33:00,
2013-03-04 07:38:00,31.9,26.7,30.24,ENE,71,1.0,1.0,81,0.00,,CLR,0.00,VWS V14.01,2013-03-04 15:38:00,
2013-03-04 07:43:00,32.0,26.8,30.24,ENE,66,1.0,1.0,81,0.00,,CLR,0.00,VWS V14.01,2013-03-04 15:43:00,
2013-03-04 07:48:00,32.5,27.0,30.24,ENE,68,2.0,2.0,80,0.00,,CLR,0.00,VWS V14.01,2013-03-04 15:48:00,
2013-03-04 07:54:00,32.6,26.8,30.24,ENE,64,0.0,0.0,79,0.00,,CLR,0.00,VWS V14.01,2013-03-04 15:54:00,
2013-03-04 07:59:00,33.2,27.4,30.24,ENE,64,0.0,0.0,79,0.00,,CLR,0.00,VWS V14.01,2013-03-04 15:59:00,
2013-03-04 08:04:00,33.8,28.0,30.24,ENE,71,3.0,3.0,79,0.00,,CLR,0.00,VWS V14.01,2013-03-04 16:04:00,
2013-03-04 08:09:00,34.4,28.6,30.24,ENE,69,3.0,3.0,79,0.00,,CLR,0.00,VWS V14.01,2013-03-04 16:09:00,
2013-03-04 08:14:00,34.8,27.7,30.24,ENE,72,0.0,0.0,75,0.00,,CLR,0.00,VWS V14.01,2013-03-04 16:14:00,
2013-03-04 08:19:00,35.1,27.3,30.24,East,85,2.0,7.0,73,0.00,,CLR,0.00,VWS V14.01,2013-03-04 16:19:00,
2013-03-04 08:24:00,35.1,27.3,30.24,ENE,68,3.0,3.0,73,0.00,,CLR,0.00,VWS V14.01,2013-03-04 16:24:00,
2013-03-04 08:29:00,35.3,27.5,30.24,ENE,66,3.0,5.0,73,0.00,,CLR,0.00,VWS V14.01,2013-03-04 16:29:00,
2013-03-04 08:34:00,35.6,27.8,30.24,ENE,62,0.0,0.0,73,0.00,,CLR,0.00,VWS V14.01,2013-03-04 16:34:00,
2013-03-04 08:39:00,36.0,28.2,30.24,ENE,71,6.0,6.0,73,0.00,,CLR,0.00,VWS V14.01,2013-03-04 16:39:00,
2013-03-04 08:44:00,36.0,27.5,30.24,ENE,71,3.0,3.0,71,0.00,,CLR,0.00,VWS V14.01,2013-03-04 16:44:00,
2013-03-04 08:50:00,36.0,27.5,30.24,ENE,78,3.0,3.0,71,0.00,,CLR,0.00,VWS V14.01,2013-03-04 16:50:00,
2013-03-04 08:55:00,36.8,27.6,30.24,ENE,71,2.0,2.0,69,0.00,,CLR,0.00,VWS V14.01,2013-03-04 16:55:00,
2013-03-04 09:00:00,36.9,28.0,30.24,ENE,78,5.0,5.0,70,0.00,,CLR,0.00,VWS V14.01,2013-03-04 17:00:00,
2013-03-04 09:05:00,36.9,28.0,30.24,ENE,62,5.0,5.0,70,0.00,,CLR,0.00,VWS V14.01,2013-03-04 17:05:00,
2013-03-04 09:10:00,37.9,29.0,30.24,ENE,76,1.0,1.0,70,0.00,,CLR,0.00,VWS V14.01,2013-03-04 17:10:00,
2013-03-04 09:15:00,38.0,29.1,30.24,ENE,65,1.0,2.0,70,0.00,,CLR,0.00,VWS V14.01,2013-03-04 17:15:00,
2013-03-04 09:20:00,38.3,25.2,30.25,NE,52,5.0,5.0,59,0.00,,CLR,0.00,VWS V14.01,2013-03-04 17:20:00,
2013-03-04 09:25:00,38.8,25.7,30.25,NE,54,3.0,3.0,59,0.00,,CLR,0.00,VWS V14.01,2013-03-04 17:25:00,
2013-03-04 09:30:00,38.8,25.3,30.25,ENE,72,3.0,3.0,58,0.00,,CLR,0.00,VWS V14.01,2013-03-04 17:30:00,
2013-03-04 09:35:00,39.3,25.8,30.25,ENE,68,1.0,1.0,58,0.00,,CLR,0.00,VWS V14.01,2013-03-04 17:35:00,
2013-03-04 09:40:00,39.3,25.8,30.25,ENE,68,5.0,6.0,58,0.00,,CLR,0.00,VWS V14.01,2013-03-04 17:40:00,
2013-03-04 09:46:00,39.3,25.8,30.25,ENE,68,5.0,5.0,58,0.00,,CLR,0.00,VWS V14.01,2013-03-04 17:46:00,
2013-03-04 09:51:00,39.3,25.8,30.25,ENE,68,5.0,5.0,58,0.00,,CLR,0.00,VWS V14.01,2013-03-04 17:51:00,
2013-03-04 09:56:00,40.6,27.0,30.25,East,83,1.0,1.0,58,0.00,,CLR,0.00,VWS V14.01,2013-03-04 17:56:00,
2013-03-04 10:01:00,40.8,27.2,30.25,East,82,0.0,2.0,58,0.00,,CLR,0.00,VWS V14.01,2013-03-04 18:01:00,
2013-03-04 10:06:00,40.9,27.3,30.24,ENE,73,2.0,2.0,58,0.00,,CLR,0.00,VWS V14.01,2013-03-04 18:06:00,
2013-03-04 10:11:00,41.1,27.5,30.24,East,80,1.0,5.0,58,0.00,,CLR,0.00,VWS V14.01,2013-03-04 18:11:00,
2013-03-04 10:16:00,41.3,27.6,30.24,East,86,1.0,1.0,58,0.00,,CLR,0.00,VWS V14.01,2013-03-04 18:16:00,
2013-03-04 10:21:00,41.6,27.9,30.24,ENE,76,5.0,5.0,58,0.00,,CLR,0.00,VWS V14.01,2013-03-04 18:21:00,
2013-03-04 10:26:00,41.6,21.3,30.24,ENE,69,5.0,5.0,44,0.00,,CLR,0.00,VWS V14.01,2013-03-04 18:26:00,
2013-03-04 10:29:00,41.8,21.5,30.24,ENE,76,1.0,2.0,44,0.00,,CLR,0.00,VWS V14.01,2013-03-04 18:29:00,
2013-03-04 10:30:00,41.8,21.5,30.24,ENE,76,1.0,1.0,44,0.00,,CLR,0.00,VWS V14.01,2013-03-04 18:30:00,
2013-03-04 10:35:00,42.3,22.0,30.24,ENE,72,1.0,5.0,44,0.00,,CLR,0.00,VWS V14.01,2013-03-04 18:35:00,
2013-03-04 10:40:00,42.3,22.0,30.24,East,93,1.0,1.0,44,0.00,,CLR,0.00,VWS V14.01,2013-03-04 18:40:00,
2013-03-04 10:45:00,42.8,22.4,30.24,ENE,66,1.0,3.0,44,0.00,,CLR,0.00,VWS V14.01,2013-03-04 18:45:00,
2013-03-04 10:50:00,43.3,22.3,30.24,East,80,5.0,5.0,43,0.00,,CLR,0.00,VWS V14.01,2013-03-04 18:50:00,
2013-03-04 10:55:00,43.3,22.3,30.24,East,79,3.0,3.0,43,0.00,,CLR,0.00,VWS V14.01,2013-03-04 18:55:00,
2013-03-04 11:00:00,43.5,20.8,30.24,NE,47,1.0,3.0,40,0.00,,CLR,0.00,VWS V14.01,2013-03-04 19:00:00,
2013-03-04 11:05:00,43.8,21.1,30.23,ENE,73,1.0,2.0,40,0.00,,CLR,0.00,VWS V14.01,2013-03-04 19:05:00,
2013-03-04 11:10:00,44.3,21.5,30.23,East,88,1.0,3.0,40,0.00,,CLR,0.00,VWS V14.01,2013-03-04 19:10:00,
2013-03-04 11:15:00,44.8,22.0,30.23,ENE,73,3.0,3.0,40,0.00,,CLR,0.00,VWS V14.01,2013-03-04 19:15:00,
2013-03-04 11:21:00,44.5,21.1,30.23,East,88,2.0,2.0,39,0.00,,CLR,0.00,VWS V14.01,2013-03-04 19:21:00,
2013-03-04 11:26:00,44.3,20.9,30.23,East,85,2.0,2.0,39,0.00,,CLR,0.00,VWS V14.01,2013-03-04 19:26:00,
2013-03-04 11:31:00,44.9,22.1,30.23,East,79,1.0,2.0,40,0.00,,CLR,0.00,VWS V14.01,2013-03-04 19:31:00,
2013-03-04 11:36:00,45.5,22.6,30.22,East,80,2.0,6.0,40,0.00,,CLR,0.00,VWS V14.01,2013-03-04 19:36:00,
2013-03-04 11:41:00,45.1,22.2,30.22,East,82,0.0,3.0,40,0.00,,CLR,0.00,VWS V14.01,2013-03-04 19:41:00,
2013-03-04 11:46:00,45.3,22.4,30.22,ENE,78,2.0,2.0,40,0.00,,CLR,0.00,VWS V14.01,2013-03-04 19:46:00,
2013-03-04 11:51:00,45.3,22.4,30.21,ENE,68,0.0,3.0,40,0.00,,CLR,0.00,VWS V14.01,2013-03-04 19:51:00,
2013-03-04 11:56:00,45.3,22.4,30.21,ENE,78,2.0,2.0,40,0.00,,CLR,0.00,VWS V14.01,2013-03-04 19:56:00,
2013-03-04 12:01:00,45.2,22.3,30.21,NNE,32,1.0,2.0,40,0.00,,CLR,0.00,VWS V14.01,2013-03-04 20:01:00,
2013-03-04 12:07:00,45.8,20.4,30.21,East,97,0.0,0.0,36,0.00,,CLR,0.00,VWS V14.01,2013-03-04 20:07:00,
2013-03-04 12:12:00,45.9,18.4,30.21,ENE,78,0.0,1.0,33,0.00,,CLR,0.00,VWS V14.01,2013-03-04 20:12:00,
2013-03-04 12:17:00,46.4,21.6,30.20,ENE,59,3.0,3.0,37,0.00,,CLR,0.00,VWS V14.01,2013-03-04 20:17:00,
2013-03-04 12:22:00,46.7,19.8,30.20,ENE,75,5.0,5.0,34,0.00,,CLR,0.00,VWS V14.01,2013-03-04 20:22:00,
2013-03-04 12:27:00,46.2,19.4,30.20,East,85,1.0,5.0,34,0.00,,CLR,0.00,VWS V14.01,2013-03-04 20:27:00,
2013-03-04 12:32:00,46.2,20.1,30.20,NNE,25,0.0,0.0,35,0.00,,CLR,0.00,VWS V14.01,2013-03-04 20:32:00,
2013-03-04 12:37:00,46.4,20.2,30.20,East,92,0.0,0.0,35,0.00,,CLR,0.00,VWS V14.01,2013-03-04 20:37:00,
2013-03-04 12:42:00,46.8,20.6,30.20,East,92,0.0,0.0,35,0.00,,CLR,0.00,VWS V14.01,2013-03-04 20:42:00,
2013-03-04 12:47:00,46.8,20.6,30.19,NNE,21,0.0,0.0,35,0.00,,CLR,0.00,VWS V14.01,2013-03-04 20:47:00,
2013-03-04 12:53:00,47.1,20.9,30.19,NE,56,0.0,0.0,35,0.00,,CLR,0.00,VWS V14.01,2013-03-04 20:53:00,
2013-03-04 12:58:00,47.0,16.4,30.19,NE,55,0.0,0.0,29,0.00,,CLR,0.00,VWS V14.01,2013-03-04 20:58:00,
2013-03-04 13:03:00,46.8,16.2,30.19,NE,55,0.0,0.0,29,0.00,,SCT050,0.00,VWS V14.01,2013-03-04 21:03:00,
2013-03-04 13:08:00,46.8,16.2,30.19,ENE,78,0.0,3.0,29,0.00,,SCT050,0.00,VWS V14.01,2013-03-04 21:08:00,
2013-03-04 13:13:00,46.2,19.4,30.19,ENE,78,0.0,0.0,34,0.00,,SCT050,0.00,VWS V14.01,2013-03-04 21:13:00,
2013-03-04 13:18:00,45.9,18.4,30.18,ENE,78,2.0,2.0,33,0.00,,SCT050,0.00,VWS V14.01,2013-03-04 21:18:00,
2013-03-04 13:23:00,45.5,18.1,30.18,ENE,78,0.0,0.0,33,0.00,,SCT050,0.00,VWS V14.01,2013-03-04 21:23:00,
2013-03-04 13:28:00,45.1,18.4,30.18,ENE,78,0.0,0.0,34,0.00,,SCT050,0.00,VWS V14.01,2013-03-04 21:28:00,
2013-03-04 13:34:00,44.9,18.2,30.18,ENE,78,0.0,0.0,34,0.00,,SCT050,0.00,VWS V14.01,2013-03-04 21:34:00,
2013-03-04 13:39:00,44.9,19.6,30.18,ENE,78,1.0,1.0,36,0.00,,SCT050,0.00,VWS V14.01,2013-03-04 21:39:00,
2013-03-04 13:44:00,44.9,17.6,30.18,ENE,78,0.0,0.0,33,0.00,,SCT050,0.00,VWS V14.01,2013-03-04 21:44:00,
2013-03-04 13:49:00,44.9,17.6,30.17,ENE,78,0.0,0.0,33,0.00,,SCT050,0.00,VWS V14.01,2013-03-04 21:49:00,
2013-03-04 13:54:00,44.9,18.9,30.17,ENE,78,0.0,0.0,35,0.00,,SCT050,0.00,VWS V14.01,2013-03-04 21:54:00,
2013-03-04 13:59:00,44.9,17.6,30.17,ENE,78,0.0,0.0,33,0.00,,SCT050,0.00,VWS V14.01,2013-03-04 21:59:00,
2013-03-04 14:05:00,44.8,18.8,30.16,ENE,78,0.0,0.0,35,0.00,,SCT065,0.00,VWS V14.01,2013-03-04 22:05:00,
2013-03-04 14:10:00,44.8,18.8,30.16,ENE,78,0.0,0.0,35,0.00,,SCT065,0.00,VWS V14.01,2013-03-04 22:10:00,
2013-03-04 14:15:00,44.8,18.8,30.16,ENE,78,0.0,0.0,35,0.00,,SCT065,0.00,VWS V14.01,2013-03-04 22:15:00,
2013-03-04 14:20:00,44.6,18.7,30.16,ENE,78,0.0,0.0,35,0.00,,SCT065,0.00,VWS V14.01,2013-03-04 22:20:00,
2013-03-04 14:25:00,44.8,18.8,30.16,ENE,78,0.0,0.0,35,0.00,,SCT065,0.00,VWS V14.01,2013-03-04 22:25:00,
2013-03-04 14:30:00,44.8,18.8,30.16,ENE,78,0.0,0.0,35,0.00,,SCT065,0.00,VWS V14.01,2013-03-04 22:30:00,
2013-03-04 14:35:00,44.9,18.9,30.16,ENE,78,0.0,0.0,35,0.00,,SCT065,0.00,VWS V14.01,2013-03-04 22:35:00,
2013-03-04 14:40:00,45.3,17.2,30.16,ENE,78,0.0,0.0,32,0.00,,SCT065,0.00,VWS V14.01,2013-03-04 22:40:00,
2013-03-04 14:45:00,45.6,16.7,30.16,ENE,78,0.0,0.0,31,0.00,,SCT065,0.00,VWS V14.01,2013-03-04 22:45:00,
2013-03-04 14:50:00,45.9,16.2,30.16,ENE,78,0.0,0.0,30,0.00,,SCT065,0.00,VWS V14.01,2013-03-04 22:50:00,
2013-03-04 14:55:00,46.1,17.2,30.16,ENE,78,0.0,0.0,31,0.00,,SCT065,0.00,VWS V14.01,2013-03-04 22:55:00,
2013-03-04 15:00:00,46.2,15.7,30.16,ENE,78,0.0,0.0,29,0.00,,SCT065,0.00,VWS V14.01,2013-03-04 23:00:00,
2013-03-04 15:05:00,46.2,15.7,30.16,ENE,78,0.0,0.0,29,0.00,,BKN070,0.00,VWS V14.01,2013-03-04 23:05:00,
2013-03-04 15:11:00,46.1,17.2,30.16,ENE,78,0.0,0.0,31,0.00,,BKN070,0.00,VWS V14.01,2013-03-04 23:11:00,
2013-03-04 15:16:00,46.1,17.2,30.16,ENE,78,0.0,0.0,31,0.00,,BKN070,0.00,VWS V14.01,2013-03-04 23:16:00,
2013-03-04 15:21:00,45.8,16.1,30.15,ENE,78,0.0,0.0,30,0.00,,BKN070,0.00,VWS V14.01,2013-03-04 23:21:00,
2013-03-04 15:26:00,45.8,16.1,30.15,ENE,78,0.0,0.0,30,0.00,,BKN070,0.00,VWS V14.01,2013-03-04 23:26:00,
2013-03-04 15:31:00,45.6,16.0,30.15,ENE,78,0.0,0.0,30,0.00,,BKN070,0.00,VWS V14.01,2013-03-04 23:31:00,
2013-03-04 15:36:00,45.6,16.0,30.15,ENE,78,0.0,0.0,30,0.00,,BKN070,0.00,VWS V14.01,2013-03-04 23:36:00,
2013-03-04 15:41:00,45.5,15.9,30.15,ENE,78,0.0,0.0,30,0.00,,BKN070,0.00,VWS V14.01,2013-03-04 23:41:00,
2013-03-04 15:46:00,45.3,15.7,30.15,ENE,78,0.0,0.0,30,0.00,,BKN070,0.00,VWS V14.01,2013-03-04 23:46:00,
2013-03-04 15:51:00,45.2,15.6,30.14,ENE,78,0.0,0.0,30,0.00,,BKN070,0.00,VWS V14.01,2013-03-04 23:51:00,
2013-03-04 15:57:00,45.2,15.6,30.14,ENE,78,0.0,0.0,30,0.00,,BKN070,0.00,VWS V14.01,2013-03-04 23:57:00,
2013-03-04 16:02:00,45.1,16.3,30.14,ENE,78,0.0,0.0,31,0.00,,BKN070,0.00,VWS V14.01,2013-03-05 00:02:00,
2013-03-04 16:07:00,45.1,17.7,30.14,ENE,78,0.0,0.0,33,0.00,,SCT070,0.00,VWS V14.01,2013-03-05 00:07:00,
2013-03-04 16:12:00,44.9,17.6,30.14,ENE,78,0.0,0.0,33,0.00,,SCT070,0.00,VWS V14.01,2013-03-05 00:12:00,
2013-03-04 16:17:00,44.8,17.5,30.13,ENE,78,0.0,0.0,33,0.00,,SCT070,0.00,VWS V14.01,2013-03-05 00:17:00,
2013-03-04 16:22:00,44.5,17.9,30.13,ENE,78,0.0,0.0,34,0.00,,SCT070,0.00,VWS V14.01,2013-03-05 00:22:00,
2013-03-04 16:27:00,44.3,17.7,30.13,ENE,78,0.0,0.0,34,0.00,,SCT070,0.00,VWS V14.01,2013-03-05 00:27:00,
2013-03-04 16:32:00,44.3,17.0,30.13,ENE,78,0.0,0.0,33,0.00,,SCT070,0.00,VWS V14.01,2013-03-05 00:32:00,
2013-03-04 16:37:00,44.3,17.7,30.13,ENE,78,0.0,0.0,34,0.00,,SCT070,0.00,VWS V14.01,2013-03-05 00:37:00,
2013-03-04 16:42:00,44.3,18.4,30.13,ENE,78,0.0,0.0,35,0.00,,SCT070,0.00,VWS V14.01,2013-03-05 00:42:00,
2013-03-04 16:47:00,44.2,19.6,30.12,ENE,78,0.0,0.0,37,0.00,,SCT070,0.00,VWS V14.01,2013-03-05 00:47:00,
2013-03-04 16:53:00,44.2,19.6,30.12,ENE,78,0.0,0.0,37,0.00,,SCT070,0.00,VWS V14.01,2013-03-05 00:53:00,
2013-03-04 16:58:00,43.8,20.5,30.12,ENE,78,0.0,0.0,39,0.00,,SCT070,0.00,VWS V14.01,2013-03-05 00:58:00,
2013-03-04 17:03:00,43.3,20.6,30.12,ENE,78,0.0,0.0,40,0.00,,FEW070,0.00,VWS V14.01,2013-03-05 01:03:00,
2013-03-04 17:08:00,42.9,20.3,30.12,ENE,78,0.0,0.0,40,0.00,,FEW070,0.00,VWS V14.01,2013-03-05 01:08:00,
2013-03-04 17:13:00,42.6,19.4,30.12,ENE,78,0.0,0.0,39,0.00,,FEW070,0.00,VWS V14.01,2013-03-05 01:13:00,
2013-03-04 17:18:00,42.1,19.0,30.11,ENE,78,0.0,0.0,39,0.00,,FEW070,0.00,VWS V14.01,2013-03-05 01:18:00,
2013-03-04 17:23:00,41.5,18.4,30.11,ENE,78,0.0,0.0,39,0.00,,FEW070,0.00,VWS V14.01,2013-03-05 01:23:00,
2013-03-04 17:29:00,41.1,18.0,30.11,ENE,78,0.0,0.0,39,0.00,,FEW070,0.00,VWS V14.01,2013-03-05 01:29:00,
2013-03-04 17:34:00,40.3,17.3,30.11,ENE,78,0.0,0.0,39,0.00,,FEW070,0.00,VWS V14.01,2013-03-05 01:34:00,
2013-03-04 17:39:00,39.6,16.7,30.11,ENE,78,0.0,0.0,39,0.00,,FEW070,0.00,VWS V14.01,2013-03-05 01:39:00,
2013-03-04 17:44:00,39.0,22.9,30.11,ENE,78,0.0,0.0,52,0.00,,FEW070,0.00,VWS V14.01,2013-03-05 01:44:00,
2013-03-04 17:49:00,37.8,21.8,30.11,ENE,78,0.0,0.0,52,0.00,,FEW070,0.00,VWS V14.01,2013-03-05 01:49:00,
2013-03-04 17:54:00,37.0,22.4,30.11,ENE,78,0.0,0.0,55,0.00,,FEW070,0.00,VWS V14.01,2013-03-05 01:54:00,
2013-03-04 17:59:00,36.2,22.0,30.11,ENE,78,0.0,0.0,56,0.00,,FEW070,0.00,VWS V14.01,2013-03-05 01:59:00,
2013-03-04 18:04:00,35.7,21.6,30.11,ENE,78,0.0,0.0,56,0.00,,CLR,0.00,VWS V14.01,2013-03-05 02:04:00,
2013-03-04 18:09:00,35.1,21.0,30.11,ENE,78,0.0,0.0,56,0.00,,CLR,0.00,VWS V14.01,2013-03-05 02:09:00,
2013-03-04 18:14:00,35.4,18.6,30.11,ENE,78,0.0,0.0,50,0.00,,CLR,0.00,VWS V14.01,2013-03-05 02:14:00,
2013-03-04 18:20:00,37.0,18.7,30.10,East,89,0.0,0.0,47,0.00,,CLR,0.00,VWS V14.01,2013-03-05 02:20:00,
2013-03-04 18:25:00,38.2,19.8,30.10,East,85,1.0,1.0,47,0.00,,CLR,0.00,VWS V14.01,2013-03-05 02:25:00,
2013-03-04 18:30:00,38.6,18.0,30.10,East,83,1.0,1.0,43,0.00,,CLR,0.00,VWS V14.01,2013-03-05 02:30:00,
2013-03-04 18:35:00,38.6,18.0,30.10,East,83,0.0,0.0,43,0.00,,CLR,0.00,VWS V14.01,2013-03-05 02:35:00,
2013-03-04 18:40:00,38.5,19.5,30.10,East,83,1.0,1.0,46,0.00,,CLR,0.00,VWS V14.01,2013-03-05 02:40:00,
2013-03-04 18:45:00,37.9,19.0,30.10,East,83,0.0,0.0,46,0.00,,CLR,0.00,VWS V14.01,2013-03-05 02:45:00,
2013-03-04 18:51:00,37.5,19.6,30.10,East,83,0.0,0.0,48,0.00,,CLR,0.00,VWS V14.01,2013-03-05 02:51:00,
2013-03-04 18:56:00,36.2,19.4,30.10,East,83,0.0,0.0,50,0.00,,CLR,0.00,VWS V14.01,2013-03-05 02:56:00,
2013-03-04 19:01:00,35.0,18.2,30.10,East,83,0.0,0.0,50,0.00,,CLR,0.00,VWS V14.01,2013-03-05 03:01:00,
2013-03-04 19:06:00,34.5,17.8,30.10,East,83,0.0,0.0,50,0.00,,CLR,0.00,VWS V14.01,2013-03-05 03:06:00,
2013-03-04 19:11:00,33.2,16.6,30.10,East,83,0.0,0.0,50,0.00,,CLR,0.00,VWS V14.01,2013-03-05 03:11:00,
2013-03-04 19:16:00,32.8,16.2,30.10,East,83,0.0,0.0,50,0.00,,CLR,0.00,VWS V14.01,2013-03-05 03:16:00,
2013-03-04 19:21:00,32.2,19.1,30.10,East,83,0.0,0.0,58,0.00,,CLR,0.00,VWS V14.01,2013-03-05 03:21:00,
2013-03-04 19:26:00,31.7,18.6,30.10,East,83,0.0,0.0,58,0.00,,CLR,0.00,VWS V14.01,2013-03-05 03:26:00,
2013-03-04 19:31:00,31.4,18.7,30.10,East,83,0.0,0.0,59,0.00,,CLR,0.00,VWS V14.01,2013-03-05 03:31:00,
2013-03-04 19:36:00,31.1,18.5,30.10,East,83,0.0,0.0,59,0.00,,CLR,0.00,VWS V14.01,2013-03-05 03:36:00,
2013-03-04 19:41:00,30.8,18.2,30.10,East,83,0.0,0.0,59,0.00,,CLR,0.00,VWS V14.01,2013-03-05 03:41:00,
2013-03-04 19:47:00,30.7,18.5,30.10,East,83,0.0,0.0,60,0.00,,CLR,0.00,VWS V14.01,2013-03-05 03:47:00,
2013-03-04 19:52:00,30.4,18.2,30.10,East,83,0.0,0.0,60,0.00,,CLR,0.00,VWS V14.01,2013-03-05 03:52:00,
2013-03-04 19:57:00,30.1,17.9,30.10,East,83,0.0,0.0,60,0.00,,CLR,0.00,VWS V14.01,2013-03-05 03:57:00,
2013-03-04 20:02:00,29.8,18.8,30.09,East,83,0.0,0.0,63,0.00,,CLR,0.00,VWS V14.01,2013-03-05 04:02:00,
2013-03-04 20:07:00,29.5,18.8,30.09,East,83,0.0,0.0,64,0.00,,CLR,0.00,VWS V14.01,2013-03-05 04:07:00,
2013-03-04 20:12:00,30.7,19.2,30.09,East,83,0.0,0.0,62,0.00,,CLR,0.00,VWS V14.01,2013-03-05 04:12:00,
2013-03-04 20:17:00,32.3,20.8,30.09,East,83,0.0,0.0,62,0.00,,CLR,0.00,VWS V14.01,2013-03-05 04:17:00,
2013-03-04 20:23:00,32.6,19.5,30.09,East,83,0.0,0.0,58,0.00,,CLR,0.00,VWS V14.01,2013-03-05 04:23:00,
2013-03-04 20:28:00,32.3,19.2,30.09,East,83,0.0,0.0,58,0.00,,CLR,0.00,VWS V14.01,2013-03-05 04:28:00,
2013-03-04 20:33:00,31.4,18.4,30.09,East,83,0.0,0.0,58,0.00,,CLR,0.00,VWS V14.01,2013-03-05 04:33:00,
2013-03-04 20:38:00,31.1,18.1,30.09,East,83,0.0,0.0,58,0.00,,CLR,0.00,VWS V14.01,2013-03-05 04:38:00,
2013-03-04 20:43:00,31.4,19.9,30.09,East,83,0.0,1.0,62,0.00,,CLR,0.00,VWS V14.01,2013-03-05 04:43:00,
2013-03-04 20:48:00,32.2,20.3,30.08,East,83,2.0,2.0,61,0.00,,CLR,0.00,VWS V14.01,2013-03-05 04:48:00,
2013-03-04 20:53:00,33.4,20.2,30.08,East,90,2.0,2.0,58,0.00,,CLR,0.00,VWS V14.01,2013-03-05 04:53:00,
2013-03-04 20:58:00,33.9,20.7,30.08,ENE,75,1.0,1.0,58,0.00,,CLR,0.00,VWS V14.01,2013-03-05 04:58:00,
2013-03-04 21:00:00,33.8,20.6,30.08,East,80,2.0,2.0,58,0.00,,CLR,0.00,VWS V14.01,2013-03-05 05:00:00,
2013-03-04 21:05:00,33.7,20.5,30.08,East,80,0.0,0.0,58,0.00,,CLR,0.00,VWS V14.01,2013-03-05 05:05:00,
2013-03-04 21:10:00,33.1,19.9,30.08,East,80,0.0,0.0,58,0.00,,CLR,0.00,VWS V14.01,2013-03-05 05:10:00,
2013-03-04 21:15:00,32.6,19.9,30.08,East,80,0.0,0.0,59,0.00,,CLR,0.00,VWS V14.01,2013-03-05 05:15:00,
2013-03-04 21:21:00,32.3,19.6,30.08,East,80,0.0,0.0,59,0.00,,CLR,0.00,VWS V14.01,2013-03-05 05:21:00,
2013-03-04 21:26:00,31.7,19.0,30.08,East,80,0.0,0.0,59,0.00,,CLR,0.00,VWS V14.01,2013-03-05 05:26:00,
2013-03-04 21:31:00,31.4,19.5,30.08,East,80,1.0,1.0,61,0.00,,CLR,0.00,VWS V14.01,2013-03-05 05:31:00,
2013-03-04 21:36:00,32.2,20.3,30.08,ENE,65,2.0,2.0,61,0.00,,CLR,0.00,VWS V14.01,2013-03-05 05:36:00,
2013-03-04 21:41:00,33.4,21.4,30.08,ENE,66,0.0,0.0,61,0.00,,CLR,0.00,VWS V14.01,2013-03-05 05:41:00,
2013-03-04 21:46:00,33.9,21.9,30.08,ENE,69,1.0,1.0,61,0.00,,CLR,0.00,VWS V14.01,2013-03-05 05:46:00,
2013-03-04 21:51:00,34.2,19.7,30.08,ENE,78,1.0,1.0,55,0.00,,CLR,0.00,VWS V14.01,2013-03-05 05:51:00,
2013-03-04 21:56:00,34.2,19.7,30.08,NE,52,0.0,2.0,55,0.00,,CLR,0.00,VWS V14.01,2013-03-05 05:56:00,
2013-03-04 22:01:00,34.4,19.9,30.08,ENE,69,2.0,2.0,55,0.00,,CLR,0.00,VWS V14.01,2013-03-05 06:01:00,
2013-03-04 22:06:00,34.4,19.9,30.08,ENE,69,0.0,0.0,55,0.00,,CLR,0.00,VWS V14.01,2013-03-05 06:06:00,
2013-03-04 22:12:00,34.4,19.9,30.08,ENE,69,0.0,0.0,55,0.00,,CLR,0.00,VWS V14.01,2013-03-05 06:12:00,
2013-03-04 22:17:00,33.9,19.9,30.08,ENE,69,0.0,2.0,56,0.00,,CLR,0.00,VWS V14.01,2013-03-05 06:17:00,
2013-03-04 22:22:00,33.7,19.7,30.08,ENE,69,3.0,3.0,56,0.00,,CLR,0.00,VWS V14.01,2013-03-05 06:22:00,
2013-03-04 22:27:00,33.8,19.8,30.08,ENE,72,3.0,3.0,56,0.00,,CLR,0.00,VWS V14.01,2013-03-05 06:27:00,
2013-03-04 22:32:00,33.9,19.9,30.07,ENE,62,3.0,3.0,56,0.00,,CLR,0.00,VWS V14.01,2013-03-05 06:32:00,
2013-03-04 22:37:00,33.9,19.9,30.07,ENE,73,5.0,5.0,56,0.00,,CLR,0.00,VWS V14.01,2013-03-05 06:37:00,
2013-03-04 22:42:00,33.7,20.1,30.07,ENE,73,5.0,6.0,57,0.00,,CLR,0.00,VWS V14.01,2013-03-05 06:42:00,
2013-03-04 22:47:00,33.7,20.1,30.06,ENE,72,2.0,3.0,57,0.00,,CLR,0.00,VWS V14.01,2013-03-05 06:47:00,
2013-03-04 22:52:00,33.4,19.8,30.06,East,79,2.0,3.0,57,0.00,,CLR,0.00,VWS V14.01,2013-03-05 06:52:00,
2013-03-04 22:57:00,33.2,19.6,30.06,East,80,0.0,2.0,57,0.00,,CLR,0.00,VWS V14.01,2013-03-05 06:57:00,
2013-03-04 23:02:00,33.2,19.6,30.06,East,80,1.0,3.0,57,0.00,,CLR,0.00,VWS V14.01,2013-03-05 07:02:00,
2013-03-04 23:07:00,33.2,19.6,30.06,East,82,0.0,0.0,57,0.00,,CLR,0.00,VWS V14.01,2013-03-05 07:07:00,
2013-03-04 23:12:00,33.1,19.5,30.06,East,82,2.0,2.0,57,0.00,,CLR,0.00,VWS V14.01,2013-03-05 07:12:00,
2013-03-04 23:17:00,32.9,19.4,30.06,ENE,66,1.0,1.0,57,0.00,,CLR,0.00,VWS V14.01,2013-03-05 07:17:00,
2013-03-04 23:23:00,32.9,19.4,30.06,East,80,2.0,2.0,57,0.00,,CLR,0.00,VWS V14.01,2013-03-05 07:23:00,
2013-03-04 23:28:00,32.9,19.4,30.06,ENE,72,2.0,2.0,57,0.00,,CLR,0.00,VWS V14.01,2013-03-05 07:28:00,
2013-03-04 23:33:00,32.9,19.4,30.06,ENE,75,2.0,2.0,57,0.00,,CLR,0.00,VWS V14.01,2013-03-05 07:33:00,
2013-03-04 23:38:00,32.6,19.1,30.06,East,79,0.0,0.0,57,0.00,,CLR,0.00,VWS V14.01,2013-03-05 07:38:00,
2013-03-04 23:43:00,32.3,18.8,30.06,East,79,0.0,0.0,57,0.00,,CLR,0.00,VWS V14.01,2013-03-05 07:43:00,
2013-03-04 23:48:00,31.7,18.2,30.06,East,79,2.0,2.0,57,0.00,,CLR,0.00,VWS V14.01,2013-03-05 07:48:00,
2013-03-04 23:53:00,31.9,20.0,30.06,East,79,0.0,2.0,61,0.00,,CLR,0.00,VWS V14.01,2013-03-05 07:53:00,
2013-03-04 23:58:00,31.9,20.0,30.06,East,79,0.0,0.0,61,0.00,,CLR,0.00,VWS V14.01,2013-03-05 07:58:00,